Terminal Aerodrome Forecast
Issued by NWS Louisville, KY

Home | Current Version | Previous Version | Text Only | Print | Product List | Glossary On
Versions: 1 2 3 4 5 6 7 8 9 10 11 12 13
000
FTUS43 KLMK 301734
TAFBWG
TAF
KBWG 301734Z 3018/3118 21009KT P6SM SCT035 SCT080 BKN250
     FM302200 19005KT P6SM VCSH SCT080 BKN250
     FM310200 VRB03KT P6SM FEW060 BKN150
     FM310800 VRB04KT 4SM BR SCT100
     FM311300 VRB05KT P6SM SCT035 SCT150=

USA.gov is the U.S. government's official web portal to all federal, state and local government web resources and services.